Time;durP1;ratioP1;P1;durP2;ratioP2;P2;SDS_P1;SDS_P2;PMS_P1;PMS_P2;Temp;Humidity;BMP_temperature;BMP_pressure;BME280_temperature;BME280_humidity;BME280_pressure;Samples;Min_cycle;Max_cycle;Signal;HPM_P1;HPM_P2
2022/07/31 00:01:05;;;;;;;9.27;4.97;;;;;;;;;;5066275;28;20044;-72
2022/07/31 00:03:31;;;;;;;7.50;4.68;;;;;;;;;;5067341;28;20477;-75
2022/07/31 00:05:56;;;;;;;7.53;4.93;;;;;;;;;;5066601;28;20489;-73
2022/07/31 00:08:21;;;;;;;5.80;4.93;;;;;;;;;;5066744;28;22068;-74
2022/07/31 00:10:47;;;;;;;6.13;4.70;;;;;;;;;;5068225;28;20120;-74
2022/07/31 00:13:12;;;;;;;5.93;4.20;;;;;;;;;;5068490;28;20107;-73
2022/07/31 00:15:38;;;;;;;5.78;4.70;;;;;;;;;;5065796;28;20032;-75
2022/07/31 00:18:03;;;;;;;6.57;4.70;;;;;;;;;;5066529;28;20028;-75
2022/07/31 00:20:28;;;;;;;8.63;4.70;;;;;;;;;;5064517;28;20031;-74
2022/07/31 00:22:56;;;;;;;6.22;4.60;;;;;;;;;;5060078;28;20020;-74
2022/07/31 00:25:21;;;;;;;5.72;4.18;;;;;;;;;;5060753;28;20024;-74
2022/07/31 00:27:47;;;;;;;5.65;4.40;;;;;;;;;;5061605;28;20025;-74
2022/07/31 00:30:13;;;;;;;7.90;4.30;;;;;;;;;;5058460;28;20063;-74
2022/07/31 00:32:39;;;;;;;5.72;4.68;;;;;;;;;;5072923;28;20400;-73
2022/07/31 00:35:05;;;;;;;6.10;4.88;;;;;;;;;;5066620;28;20510;-73
2022/07/31 00:37:33;;;;;;;6.45;4.50;;;;;;;;;;5061149;28;20032;-75
2022/07/31 00:39:59;;;;;;;6.95;4.80;;;;;;;;;;5061382;28;20060;-74
2022/07/31 00:42:24;;;;;;;6.97;5.32;;;;;;;;;;5065733;28;20029;-75
2022/07/31 00:44:51;;;;;;;6.85;5.57;;;;;;;;;;5065067;28;20028;-73
2022/07/31 00:47:18;;;;;;;5.90;5.15;;;;;;;;;;5059630;28;20024;-73
2022/07/31 00:49:44;;;;;;;7.20;5.43;;;;;;;;;;5060992;28;21350;-74
2022/07/31 00:52:10;;;;;;;6.20;5.07;;;;;;;;;;5060735;28;20042;-74
2022/07/31 00:54:35;;;;;;;6.13;5.38;;;;;;;;;;5063360;28;20028;-73
2022/07/31 00:57:01;;;;;;;6.57;5.38;;;;;;;;;;5072632;28;20416;-74
2022/07/31 00:59:27;;;;;;;6.18;5.18;;;;;;;;;;5066800;28;20089;-74
2022/07/31 01:01:53;;;;;;;10.70;5.00;;;;;;;;;;5059469;28;20021;-75
2022/07/31 01:04:19;;;;;;;8.00;5.03;;;;;;;;;;5060316;28;20075;-75
2022/07/31 01:06:45;;;;;;;6.78;5.47;;;;;;;;;;5069760;28;20028;-74
2022/07/31 01:09:13;;;;;;;8.32;5.72;;;;;;;;;;5065912;28;20039;-74
2022/07/31 01:11:50;;;;;;;11.02;6.05;;;;;;;;;;5053290;28;20125;-74
2022/07/31 01:14:18;;;;;;;7.75;6.93;;;;;;;;;;5061365;28;20028;-75
2022/07/31 01:16:47;;;;;;;8.38;6.40;;;;;;;;;;5058632;28;20033;-75
2022/07/31 01:19:49;;;;;;;8.77;6.35;;;;;;;;;;5063697;28;20146;-74
2022/07/31 01:22:49;;;;;;;8.93;6.70;;;;;;;;;;5065287;28;20104;-74
2022/07/31 01:25:31;;;;;;;7.57;6.15;;;;;;;;;;5063806;28;21871;-75
2022/07/31 01:28:18;;;;;;;9.32;6.35;;;;;;;;;;5070288;28;20032;-73
2022/07/31 01:30:51;;;;;;;8.90;6.93;;;;;;;;;;5064211;28;20028;-75
2022/07/31 01:33:21;;;;;;;;;;;;;;;;;;5063768;28;20535;-74
2022/07/31 01:35:52;;;;;;;8.23;7.43;;;;;;;;;;5063611;28;19920;-74
2022/07/31 01:38:31;;;;;;;7.47;6.63;;;;;;;;;;5061331;28;20036;-73
2022/07/31 01:41:01;;;;;;;8.90;7.72;;;;;;;;;;5062932;28;20028;-75
2022/07/31 01:43:39;;;;;;;8.43;7.40;;;;;;;;;;5077812;28;20024;-75
2022/07/31 01:46:08;;;;;;;9.38;7.30;;;;;;;;;;5061832;28;20478;-75
2022/07/31 01:48:35;;;;;;;9.80;7.60;;;;;;;;;;5061978;28;20021;-73
2022/07/31 01:51:02;;;;;;;10.23;8.15;;;;;;;;;;5063644;28;20386;-75
2022/07/31 01:53:30;;;;;;;9.40;7.45;;;;;;;;;;5069859;28;20456;-74
2022/07/31 01:55:56;;;;;;;8.98;7.38;;;;;;;;;;5064741;28;20464;-74
2022/07/31 01:58:23;;;;;;;9.13;7.88;;;;;;;;;;5057045;28;20384;-73
2022/07/31 02:00:52;;;;;;;8.73;7.32;;;;;;;;;;5055709;28;20021;-74
2022/07/31 02:03:18;;;;;;;8.18;7.32;;;;;;;;;;5065768;28;20141;-74
2022/07/31 02:05:44;;;;;;;8.52;7.28;;;;;;;;;;5065549;28;20178;-74
2022/07/31 02:08:13;;;;;;;10.82;7.32;;;;;;;;;;5068001;28;20036;-75
2022/07/31 02:10:39;;;;;;;9.57;8.07;;;;;;;;;;5061559;28;20029;-73
2022/07/31 02:13:05;;;;;;;7.65;6.60;;;;;;;;;;5062217;28;20036;-75
2022/07/31 02:15:31;;;;;;;9.85;6.70;;;;;;;;;;5064731;28;20040;-75
2022/07/31 02:17:59;;;;;;;7.07;5.70;;;;;;;;;;5064470;28;20027;-74
2022/07/31 02:20:29;;;;;;;8.13;6.72;;;;;;;;;;5061165;28;20033;-75
2022/07/31 02:22:57;;;;;;;7.85;7.05;;;;;;;;;;5064387;28;20031;-73
2022/07/31 02:25:23;;;;;;;7.93;6.88;;;;;;;;;;5060746;28;20103;-73
2022/07/31 02:27:49;;;;;;;9.05;6.63;;;;;;;;;;5065024;28;20078;-75
2022/07/31 02:30:16;;;;;;;10.73;6.80;;;;;;;;;;5067999;28;20024;-72
2022/07/31 02:32:45;;;;;;;8.73;6.50;;;;;;;;;;5060792;28;20036;-73
2022/07/31 02:35:14;;;;;;;9.23;7.05;;;;;;;;;;5056703;28;20060;-74
2022/07/31 02:37:41;;;;;;;8.60;7.50;;;;;;;;;;5052876;28;20021;-74
2022/07/31 02:40:08;;;;;;;9.00;7.07;;;;;;;;;;5052227;28;20068;-73
2022/07/31 02:42:33;;;;;;;9.10;7.22;;;;;;;;;;5061832;28;20025;-73
2022/07/31 02:45:00;;;;;;;8.60;7.07;;;;;;;;;;5070088;28;20024;-74
2022/07/31 02:47:27;;;;;;;10.13;7.20;;;;;;;;;;5063522;28;20069;-75
2022/07/31 02:49:54;;;;;;;7.20;5.68;;;;;;;;;;5060930;28;20430;-73
2022/07/31 02:52:21;;;;;;;7.10;6.28;;;;;;;;;;5061900;28;20108;-73
2022/07/31 02:54:46;;;;;;;6.53;5.65;;;;;;;;;;5065482;28;20066;-75
2022/07/31 02:57:12;;;;;;;7.25;5.47;;;;;;;;;;5072754;28;20063;-75
2022/07/31 02:59:38;;;;;;;7.82;5.43;;;;;;;;;;5059952;28;20416;-75
2022/07/31 03:02:04;;;;;;;6.80;5.65;;;;;;;;;;5067393;28;20075;-74
2022/07/31 03:04:29;;;;;;;6.43;5.35;;;;;;;;;;5066997;28;20073;-75
2022/07/31 03:06:55;;;;;;;7.88;5.75;;;;;;;;;;5060013;28;20040;-75
2022/07/31 03:09:20;;;;;;;7.15;5.63;;;;;;;;;;5062353;28;20028;-75
2022/07/31 03:11:46;;;;;;;6.35;5.05;;;;;;;;;;5064906;28;20036;-74
2022/07/31 03:14:12;;;;;;;7.63;5.32;;;;;;;;;;5062609;28;20020;-73
2022/07/31 03:16:39;;;;;;;6.38;5.40;;;;;;;;;;5067147;28;20120;-73
2022/07/31 03:19:07;;;;;;;6.88;5.43;;;;;;;;;;5052334;28;20028;-73
2022/07/31 03:21:33;;;;;;;8.65;6.45;;;;;;;;;;5073296;28;20024;-74
2022/07/31 03:23:59;;;;;;;6.82;5.80;;;;;;;;;;5059927;28;20046;-75
2022/07/31 03:26:25;;;;;;;8.05;5.60;;;;;;;;;;5062719;28;20119;-73
2022/07/31 03:28:51;;;;;;;8.60;5.03;;;;;;;;;;5059321;28;20119;-75
2022/07/31 03:31:17;;;;;;;6.25;5.30;;;;;;;;;;5063264;28;20594;-75
2022/07/31 03:33:42;;;;;;;6.68;5.07;;;;;;;;;;5055475;28;20031;-74
2022/07/31 03:36:11;;;;;;;6.68;5.22;;;;;;;;;;5057852;28;20032;-72
2022/07/31 03:38:37;;;;;;;5.97;4.88;;;;;;;;;;5060374;28;20055;-75
2022/07/31 03:41:02;;;;;;;7.60;5.43;;;;;;;;;;5054612;28;20036;-75
2022/07/31 03:43:30;;;;;;;6.78;5.47;;;;;;;;;;5066930;28;20048;-74
2022/07/31 03:45:58;;;;;;;10.00;6.20;;;;;;;;;;5065408;28;20033;-75
2022/07/31 03:48:24;;;;;;;7.63;5.50;;;;;;;;;;5057497;28;20032;-74
2022/07/31 03:50:50;;;;;;;7.70;5.10;;;;;;;;;;5066800;28;20021;-73
2022/07/31 03:53:16;;;;;;;7.95;5.95;;;;;;;;;;5063230;28;20070;-74
2022/07/31 03:55:43;;;;;;;6.72;5.22;;;;;;;;;;5063517;28;20930;-74
2022/07/31 03:58:10;;;;;;;6.00;4.93;;;;;;;;;;5066009;28;20473;-74
2022/07/31 04:00:36;;;;;;;6.60;4.88;;;;;;;;;;5057052;28;20032;-75
2022/07/31 04:03:08;;;;;;;6.82;4.82;;;;;;;;;;5062126;28;20033;-74
2022/07/31 04:05:35;;;;;;;6.30;4.50;;;;;;;;;;5064890;28;20059;-74
2022/07/31 04:08:00;;;;;;;7.53;5.28;;;;;;;;;;5061314;28;20131;-73
2022/07/31 04:10:26;;;;;;;6.63;4.78;;;;;;;;;;5062583;28;20095;-74
2022/07/31 04:12:52;;;;;;;6.30;4.60;;;;;;;;;;5060183;28;20048;-74
2022/07/31 04:15:17;;;;;;;6.25;4.68;;;;;;;;;;5061405;28;20079;-75
2022/07/31 04:17:43;;;;;;;6.93;5.25;;;;;;;;;;5061294;28;20091;-74
2022/07/31 04:20:10;;;;;;;6.07;4.10;;;;;;;;;;5069176;28;20082;-75
2022/07/31 04:22:36;;;;;;;6.38;4.78;;;;;;;;;;5063099;28;20104;-72
2022/07/31 04:25:03;;;;;;;6.63;4.30;;;;;;;;;;5063690;28;20035;-75
2022/07/31 04:27:28;;;;;;;7.63;4.40;;;;;;;;;;5063657;28;20028;-73
2022/07/31 04:29:54;;;;;;;7.28;4.40;;;;;;;;;;5053220;28;20036;-75
2022/07/31 04:32:20;;;;;;;5.82;3.85;;;;;;;;;;5049933;28;20039;-73
2022/07/31 04:34:45;;;;;;;6.28;4.18;;;;;;;;;;5059673;28;20048;-75
2022/07/31 04:37:11;;;;;;;7.20;4.30;;;;;;;;;;5059296;28;20033;-75
2022/07/31 04:39:37;;;;;;;8.10;4.20;;;;;;;;;;5064491;28;20055;-74
2022/07/31 04:42:03;;;;;;;5.57;4.15;;;;;;;;;;5067287;28;20036;-75
2022/07/31 04:44:28;;;;;;;7.85;4.85;;;;;;;;;;5071142;28;20134;-74
2022/07/31 04:47:04;;;;;;;7.85;4.25;;;;;;;;;;5065313;28;20124;-74
2022/07/31 04:49:31;;;;;;;5.45;3.88;;;;;;;;;;5070427;28;20490;-73
2022/07/31 04:51:57;;;;;;;8.48;5.10;;;;;;;;;;5061362;28;20060;-74
2022/07/31 04:54:23;;;;;;;5.82;4.25;;;;;;;;;;5061954;28;20048;-75
2022/07/31 04:56:48;;;;;;;5.05;3.65;;;;;;;;;;5067369;28;20115;-75
2022/07/31 04:59:20;;;;;;;7.18;4.60;;;;;;;;;;5063159;28;20127;-74
2022/07/31 05:01:47;;;;;;;8.25;4.70;;;;;;;;;;5061879;28;20054;-75
2022/07/31 05:04:13;;;;;;;5.47;4.20;;;;;;;;;;5067691;28;20031;-74
2022/07/31 05:06:42;;;;;;;8.40;5.30;;;;;;;;;;5062798;28;20025;-74
2022/07/31 05:09:09;;;;;;;8.07;5.03;;;;;;;;;;5068767;28;20032;-75
2022/07/31 05:11:35;;;;;;;9.73;4.68;;;;;;;;;;5068764;28;20032;-73
2022/07/31 05:14:03;;;;;;;7.55;5.32;;;;;;;;;;5067844;28;20036;-73
2022/07/31 05:16:29;;;;;;;8.90;4.82;;;;;;;;;;5066123;28;20029;-74
2022/07/31 05:18:55;;;;;;;7.43;4.30;;;;;;;;;;5069206;28;20045;-75
2022/07/31 05:21:21;;;;;;;7.90;4.75;;;;;;;;;;5065826;28;20114;-75
2022/07/31 05:23:48;;;;;;;7.28;4.68;;;;;;;;;;5064357;28;20105;-75
2022/07/31 05:26:15;;;;;;;8.07;5.95;;;;;;;;;;5067704;28;20024;-74
2022/07/31 05:28:41;;;;;;;7.65;5.25;;;;;;;;;;5064484;28;20543;-75
2022/07/31 05:31:07;;;;;;;7.80;5.35;;;;;;;;;;5065414;28;20028;-75
2022/07/31 05:33:33;;;;;;;9.02;6.65;;;;;;;;;;5059826;28;20037;-73
2022/07/31 05:36:00;;;;;;;7.85;5.88;;;;;;;;;;5068838;28;20043;-75
2022/07/31 05:38:25;;;;;;;9.20;6.10;;;;;;;;;;5077939;28;20032;-75
2022/07/31 05:40:52;;;;;;;11.20;7.03;;;;;;;;;;5065286;28;20504;-75
2022/07/31 05:43:17;;;;;;;9.27;6.13;;;;;;;;;;5070195;28;20025;-75
2022/07/31 05:45:43;;;;;;;12.13;7.50;;;;;;;;;;5068225;28;20100;-75
2022/07/31 05:48:08;;;;;;;8.98;6.72;;;;;;;;;;5063279;28;20167;-75
2022/07/31 05:50:34;;;;;;;11.57;6.85;;;;;;;;;;5062816;28;20036;-75
2022/07/31 05:53:00;;;;;;;8.48;6.15;;;;;;;;;;5058836;28;21885;-75
2022/07/31 05:55:25;;;;;;;9.80;7.28;;;;;;;;;;5062019;28;20173;-75
2022/07/31 05:57:52;;;;;;;9.68;7.50;;;;;;;;;;5063673;28;20016;-75
2022/07/31 06:00:17;;;;;;;8.50;6.88;;;;;;;;;;5062780;28;20027;-75
2022/07/31 06:02:44;;;;;;;8.57;6.22;;;;;;;;;;5062287;28;20029;-74
2022/07/31 06:05:09;;;;;;;9.88;7.60;;;;;;;;;;5067410;28;20100;-74
2022/07/31 06:07:35;;;;;;;8.13;6.10;;;;;;;;;;5067501;28;20107;-75
2022/07/31 06:10:01;;;;;;;8.77;6.72;;;;;;;;;;5065132;28;20039;-75
2022/07/31 06:12:27;;;;;;;7.85;6.40;;;;;;;;;;5067082;28;20075;-73
2022/07/31 06:14:52;;;;;;;6.65;5.65;;;;;;;;;;5068815;28;20056;-75
2022/07/31 06:17:17;;;;;;;9.52;6.63;;;;;;;;;;5065022;28;20029;-75
2022/07/31 06:19:43;;;;;;;7.57;5.80;;;;;;;;;;5062103;28;20496;-74
2022/07/31 06:22:08;;;;;;;8.63;6.38;;;;;;;;;;5066059;28;20036;-74
2022/07/31 06:24:34;;;;;;;9.63;6.13;;;;;;;;;;5060424;28;20070;-75
2022/07/31 06:27:00;;;;;;;6.25;5.38;;;;;;;;;;5062359;28;20044;-73
2022/07/31 06:29:27;;;;;;;7.25;5.18;;;;;;;;;;5056981;28;20078;-75
2022/07/31 06:31:55;;;;;;;7.00;5.43;;;;;;;;;;5058706;28;20036;-74
2022/07/31 06:34:21;;;;;;;6.88;5.55;;;;;;;;;;5060799;28;20492;-73
2022/07/31 06:36:46;;;;;;;6.88;4.82;;;;;;;;;;5064475;28;20037;-74
2022/07/31 06:39:12;;;;;;;6.60;4.90;;;;;;;;;;5063965;28;20031;-73
2022/07/31 06:41:43;;;;;;;5.28;3.92;;;;;;;;;;5055160;28;20563;-75
2022/07/31 06:44:09;;;;;;;6.47;4.47;;;;;;;;;;5059088;28;20150;-75
2022/07/31 06:46:34;;;;;;;5.68;4.47;;;;;;;;;;5052978;28;20036;-74
2022/07/31 06:49:00;;;;;;;6.85;4.63;;;;;;;;;;5052647;28;20558;-75
2022/07/31 06:51:25;;;;;;;6.72;4.50;;;;;;;;;;5052449;28;20037;-75
2022/07/31 06:53:51;;;;;;;5.97;4.35;;;;;;;;;;5056591;28;20044;-75
2022/07/31 06:56:16;;;;;;;6.38;4.47;;;;;;;;;;5059835;28;20032;-74
2022/07/31 06:58:41;;;;;;;5.70;3.63;;;;;;;;;;5066334;28;20055;-75
2022/07/31 07:01:07;;;;;;;6.32;3.88;;;;;;;;;;5047999;28;20432;-73
2022/07/31 07:03:32;;;;;;;5.95;3.78;;;;;;;;;;5059784;28;20029;-74
2022/07/31 07:05:58;;;;;;;6.82;3.85;;;;;;;;;;5063483;28;20029;-74
2022/07/31 07:08:23;;;;;;;5.95;3.53;;;;;;;;;;5062880;28;20021;-74
2022/07/31 07:10:49;;;;;;;6.85;4.03;;;;;;;;;;5058994;28;20028;-74
2022/07/31 07:13:14;;;;;;;6.15;4.15;;;;;;;;;;5065851;28;20090;-75
2022/07/31 07:15:40;;;;;;;5.90;4.03;;;;;;;;;;5082857;28;20032;-74
2022/07/31 07:18:05;;;;;;;6.95;4.45;;;;;;;;;;5066020;28;20548;-73
2022/07/31 07:20:31;;;;;;;6.55;4.40;;;;;;;;;;5061385;28;20476;-75
2022/07/31 07:22:57;;;;;;;6.38;4.68;;;;;;;;;;5072048;28;20013;-74
2022/07/31 07:25:22;;;;;;;6.65;4.03;;;;;;;;;;5066259;28;20025;-74
2022/07/31 07:27:47;;;;;;;8.50;4.72;;;;;;;;;;5067067;28;20110;-74
2022/07/31 07:30:13;;;;;;;6.47;4.60;;;;;;;;;;5061434;28;20027;-75
2022/07/31 07:32:38;;;;;;;7.40;4.38;;;;;;;;;;5062190;28;20037;-74
2022/07/31 07:35:04;;;;;;;7.82;4.68;;;;;;;;;;5062863;28;20086;-75
2022/07/31 07:37:29;;;;;;;7.35;4.57;;;;;;;;;;5062245;28;20044;-73
2022/07/31 07:39:55;;;;;;;6.53;4.30;;;;;;;;;;5062328;28;20037;-72
2022/07/31 07:42:21;;;;;;;7.13;4.05;;;;;;;;;;5065908;28;20060;-75
2022/07/31 07:44:46;;;;;;;7.20;4.65;;;;;;;;;;5060501;28;20052;-75
2022/07/31 07:47:12;;;;;;;8.45;5.15;;;;;;;;;;5064057;28;20116;-75
2022/07/31 07:49:37;;;;;;;6.05;3.90;;;;;;;;;;5060408;28;20024;-74
2022/07/31 07:52:03;;;;;;;10.70;5.03;;;;;;;;;;5062462;28;20043;-73
2022/07/31 07:54:28;;;;;;;7.95;4.40;;;;;;;;;;5065867;28;20032;-75
2022/07/31 07:56:54;;;;;;;7.80;4.78;;;;;;;;;;5063849;28;20500;-74
2022/07/31 07:59:20;;;;;;;6.25;4.75;;;;;;;;;;5064419;28;20385;-75
2022/07/31 08:01:45;;;;;;;8.25;5.00;;;;;;;;;;5059629;28;20060;-75
2022/07/31 08:04:11;;;;;;;7.95;5.15;;;;;;;;;;5066012;28;20032;-74
2022/07/31 08:06:36;;;;;;;6.05;3.90;;;;;;;;;;5062514;28;20028;-73
2022/07/31 08:09:02;;;;;;;7.18;4.65;;;;;;;;;;5055029;28;20492;-74
2022/07/31 08:11:28;;;;;;;8.75;4.93;;;;;;;;;;5062037;28;20029;-75
2022/07/31 08:13:54;;;;;;;8.13;4.80;;;;;;;;;;5065901;28;20032;-76
2022/07/31 08:16:20;;;;;;;9.13;5.35;;;;;;;;;;5060344;28;20112;-75
2022/07/31 08:18:45;;;;;;;8.35;5.10;;;;;;;;;;5071672;28;20123;-74
2022/07/31 08:21:11;;;;;;;8.27;5.50;;;;;;;;;;5066710;28;20481;-75
2022/07/31 08:23:36;;;;;;;7.43;5.30;;;;;;;;;;5066343;28;20392;-75
2022/07/31 08:26:03;;;;;;;7.45;5.00;;;;;;;;;;5065806;28;20021;-76
2022/07/31 08:28:29;;;;;;;9.30;6.00;;;;;;;;;;5061969;28;20141;-75
2022/07/31 08:30:54;;;;;;;8.00;5.35;;;;;;;;;;5064939;28;20049;-74
2022/07/31 08:33:20;;;;;;;9.65;5.95;;;;;;;;;;5062591;28;20405;-74
2022/07/31 08:35:48;;;;;;;9.60;6.82;;;;;;;;;;5065918;28;20424;-76
2022/07/31 08:38:14;;;;;;;11.55;6.85;;;;;;;;;;5060095;28;20032;-76
2022/07/31 08:40:40;;;;;;;8.68;6.10;;;;;;;;;;5066726;28;20032;-75
2022/07/31 08:43:05;;;;;;;8.55;6.13;;;;;;;;;;5063001;28;20029;-75
2022/07/31 08:45:31;;;;;;;8.57;5.63;;;;;;;;;;5058630;28;20036;-74
2022/07/31 08:47:59;;;;;;;8.52;5.75;;;;;;;;;;5060740;28;20120;-76
2022/07/31 08:50:25;;;;;;;10.23;6.93;;;;;;;;;;5061275;28;20074;-76
2022/07/31 08:52:53;;;;;;;9.02;6.00;;;;;;;;;;5064596;28;20031;-74
2022/07/31 08:55:21;;;;;;;9.80;6.55;;;;;;;;;;5062475;28;20028;-76
2022/07/31 08:57:49;;;;;;;13.93;6.18;;;;;;;;;;5055294;28;20408;-75
2022/07/31 09:00:16;;;;;;;10.80;5.95;;;;;;;;;;5060410;28;20075;-75
2022/07/31 09:02:43;;;;;;;9.50;6.22;;;;;;;;;;5061228;28;20021;-75
2022/07/31 09:05:09;;;;;;;9.50;6.72;;;;;;;;;;5063287;28;20473;-76
2022/07/31 09:07:34;;;;;;;10.02;6.22;;;;;;;;;;5064358;28;20067;-75
2022/07/31 09:10:00;;;;;;;11.45;7.20;;;;;;;;;;5056311;28;20886;-75
2022/07/31 09:12:28;;;;;;;10.38;6.72;;;;;;;;;;5057785;28;20024;-76
2022/07/31 09:14:54;;;;;;;12.15;7.47;;;;;;;;;;5063356;28;20438;-75
2022/07/31 09:17:30;;;;;;;9.65;6.47;;;;;;;;;;5056672;28;20037;-75
2022/07/31 09:19:55;;;;;;;10.65;7.90;;;;;;;;;;5064125;28;20036;-74
2022/07/31 09:22:29;;;;;;;9.18;7.40;;;;;;;;;;5065225;28;20036;-76
2022/07/31 09:25:17;;;;;;;11.05;8.23;;;;;;;;;;5056280;28;20062;-75
2022/07/31 09:27:44;;;;;;;12.05;8.45;;;;;;;;;;5063387;28;20082;-76
2022/07/31 09:30:10;;;;;;;12.75;7.65;;;;;;;;;;5048808;28;20032;-74
2022/07/31 09:32:36;;;;;;;10.40;7.85;;;;;;;;;;5062832;28;20041;-74
2022/07/31 09:35:12;;;;;;;10.65;8.52;;;;;;;;;;5071035;28;20048;-74
2022/07/31 09:37:39;;;;;;;10.48;8.70;;;;;;;;;;5065157;28;20111;-75
2022/07/31 09:40:06;;;;;;;11.73;7.88;;;;;;;;;;5066329;28;20028;-75
2022/07/31 09:42:42;;;;;;;11.75;8.75;;;;;;;;;;5058689;28;20036;-75
2022/07/31 09:45:23;;;;;;;14.45;8.85;;;;;;;;;;5067387;28;20789;-76
2022/07/31 09:48:06;;;;;;;10.25;8.13;;;;;;;;;;5064856;28;20028;-75
2022/07/31 09:50:32;;;;;;;11.25;9.00;;;;;;;;;;5071217;28;20021;-76
2022/07/31 09:53:00;;;;;;;10.95;9.50;;;;;;;;;;5072734;28;20028;-76
2022/07/31 09:55:25;;;;;;;13.32;10.30;;;;;;;;;;5066962;28;20028;-78
2022/07/31 09:57:56;;;;;;;14.10;10.35;;;;;;;;;;5068241;28;20032;-74
2022/07/31 10:00:22;;;;;;;12.20;9.85;;;;;;;;;;5060514;28;20036;-76
2022/07/31 10:02:49;;;;;;;12.68;9.98;;;;;;;;;;5055676;28;20625;-75
2022/07/31 10:05:16;;;;;;;11.88;9.82;;;;;;;;;;5058084;28;20028;-74
2022/07/31 10:07:42;;;;;;;11.30;9.38;;;;;;;;;;5057290;28;20036;-76
2022/07/31 10:10:08;;;;;;;10.52;8.70;;;;;;;;;;5056653;28;20024;-74
2022/07/31 10:12:39;;;;;;;14.63;10.20;;;;;;;;;;5060381;28;20037;-75
2022/07/31 10:15:08;;;;;;;12.50;10.18;;;;;;;;;;5053392;28;20609;-75
2022/07/31 10:17:36;;;;;;;12.35;9.27;;;;;;;;;;5056241;28;20032;-75
2022/07/31 10:20:05;;;;;;;12.30;9.70;;;;;;;;;;5048835;28;20032;-76
2022/07/31 10:22:35;;;;;;;12.25;9.88;;;;;;;;;;5053415;28;20064;-76
2022/07/31 10:25:02;;;;;;;12.75;9.90;;;;;;;;;;5055260;28;20090;-74
2022/07/31 10:27:28;;;;;;;11.18;9.10;;;;;;;;;;5051774;28;20090;-74
2022/07/31 10:29:55;;;;;;;10.07;8.98;;;;;;;;;;5047705;28;20041;-76
2022/07/31 10:32:21;;;;;;;12.70;9.27;;;;;;;;;;5041028;28;20045;-75
2022/07/31 10:34:46;;;;;;;11.95;9.18;;;;;;;;;;5053552;28;20400;-75
2022/07/31 10:37:23;;;;;;;10.68;8.75;;;;;;;;;;5044212;28;20488;-76
2022/07/31 10:39:54;;;;;;;9.70;8.68;;;;;;;;;;5049420;28;20139;-76
2022/07/31 10:42:44;;;;;;;9.60;8.43;;;;;;;;;;5047828;28;20499;-76
2022/07/31 10:45:16;;;;;;;8.85;7.57;;;;;;;;;;5047432;28;21230;-75
2022/07/31 10:47:53;;;;;;;9.90;8.30;;;;;;;;;;5040619;28;20028;-75
2022/07/31 10:50:20;;;;;;;10.00;8.10;;;;;;;;;;5054942;28;20032;-75
2022/07/31 10:52:45;;;;;;;11.15;7.75;;;;;;;;;;5055377;28;20105;-76
2022/07/31 10:55:24;;;;;;;9.52;7.88;;;;;;;;;;5057218;28;20119;-74
2022/07/31 10:57:50;;;;;;;10.07;7.80;;;;;;;;;;5054996;28;20347;-75
2022/07/31 11:00:18;;;;;;;9.48;7.53;;;;;;;;;;5055719;28;20802;-76
2022/07/31 11:02:44;;;;;;;9.02;7.60;;;;;;;;;;5047489;28;20395;-76
2022/07/31 11:05:10;;;;;;;7.97;6.75;;;;;;;;;;5048312;28;20028;-75
2022/07/31 11:07:35;;;;;;;9.35;6.75;;;;;;;;;;5045114;28;20051;-75
2022/07/31 11:10:28;;;;;;;7.43;6.50;;;;;;;;;;5047364;28;20042;-76
2022/07/31 11:13:09;;;;;;;9.18;6.63;;;;;;;;;;5043610;28;20118;-76
2022/07/31 11:15:36;;;;;;;8.85;6.13;;;;;;;;;;5043343;28;20032;-76
2022/07/31 11:18:19;;;;;;;7.32;6.45;;;;;;;;;;5044917;28;20434;-76
2022/07/31 11:20:45;;;;;;;6.45;5.80;;;;;;;;;;5043198;28;20025;-76
2022/07/31 11:23:14;;;;;;;6.55;5.75;;;;;;;;;;5047341;28;20046;-76
2022/07/31 11:25:40;;;;;;;7.78;5.97;;;;;;;;;;5043126;28;20029;-76
2022/07/31 11:28:23;;;;;;;8.35;6.47;;;;;;;;;;5048974;28;20580;-76
2022/07/31 11:30:51;;;;;;;;;;;;;;;;;;5047907;28;20031;-75
2022/07/31 11:33:48;;;;;;;7.05;5.97;;;;;;;;;;5047647;28;20526;-75
2022/07/31 11:36:18;;;;;;;6.20;5.53;;;;;;;;;;5040227;28;20036;-76
2022/07/31 11:38:46;;;;;;;7.15;5.78;;;;;;;;;;5048461;28;20388;-76
2022/07/31 11:41:12;;;;;;;6.35;5.13;;;;;;;;;;5048764;28;20032;-76
2022/07/31 11:43:46;;;;;;;6.10;4.95;;;;;;;;;;5046088;28;20699;-76
2022/07/31 11:46:13;;;;;;;6.15;4.82;;;;;;;;;;5043837;28;20025;-76
2022/07/31 11:48:38;;;;;;;6.90;4.70;;;;;;;;;;5052316;28;20020;-76
2022/07/31 11:51:04;;;;;;;7.03;4.88;;;;;;;;;;5051422;28;20046;-76
2022/07/31 11:53:29;;;;;;;7.10;5.00;;;;;;;;;;5053837;28;20097;-76
2022/07/31 11:55:59;;;;;;;6.50;5.45;;;;;;;;;;5065222;28;20040;-75
2022/07/31 11:58:28;;;;;;;7.90;5.22;;;;;;;;;;5051370;28;20399;-76
2022/07/31 12:01:02;;;;;;;6.45;5.05;;;;;;;;;;5051899;28;20055;-76
2022/07/31 12:03:36;;;;;;;6.03;5.25;;;;;;;;;;5048464;28;20108;-76
2022/07/31 12:06:03;;;;;;;6.38;4.90;;;;;;;;;;5047150;28;20404;-75
2022/07/31 12:08:29;;;;;;;7.20;5.30;;;;;;;;;;5059180;28;20025;-76
2022/07/31 12:10:56;;;;;;;5.00;4.40;;;;;;;;;;5062058;28;20035;-75
2022/07/31 12:13:22;;;;;;;7.05;4.97;;;;;;;;;;5059867;28;20071;-75
2022/07/31 12:16:08;;;;;;;6.10;4.80;;;;;;;;;;5067215;28;20453;-75
2022/07/31 12:18:48;;;;;;;6.57;5.63;;;;;;;;;;5059422;28;20419;-77
2022/07/31 12:21:14;;;;;;;7.95;5.65;;;;;;;;;;5061932;28;20114;-76
2022/07/31 12:23:46;;;;;;;6.25;5.53;;;;;;;;;;5055091;28;20041;-76
2022/07/31 12:26:26;;;;;;;6.80;5.88;;;;;;;;;;5062803;28;20098;-76
2022/07/31 12:29:03;;;;;;;8.18;6.30;;;;;;;;;;5061568;28;20373;-75
2022/07/31 12:31:30;;;;;;;9.13;6.03;;;;;;;;;;5053031;28;20056;-76
2022/07/31 12:33:55;;;;;;;6.65;5.55;;;;;;;;;;5063173;28;20455;-74
2022/07/31 12:36:21;;;;;;;9.55;6.13;;;;;;;;;;5058653;28;20020;-76
2022/07/31 12:39:00;;;;;;;6.75;5.15;;;;;;;;;;5056898;28;20033;-76
2022/07/31 12:41:27;;;;;;;6.28;5.57;;;;;;;;;;5063695;28;20032;-75
2022/07/31 12:43:53;;;;;;;7.70;5.63;;;;;;;;;;5058598;28;20028;-75
2022/07/31 12:46:35;;;;;;;7.03;5.40;;;;;;;;;;5058064;28;20935;-76
2022/07/31 12:49:01;;;;;;;7.20;5.40;;;;;;;;;;5057648;28;20439;-75
2022/07/31 12:51:26;;;;;;;6.57;5.60;;;;;;;;;;5059506;28;20034;-74
2022/07/31 12:53:51;;;;;;;6.40;5.10;;;;;;;;;;5059778;28;20051;-75
2022/07/31 12:56:17;;;;;;;7.20;4.60;;;;;;;;;;5051378;28;20032;-77
2022/07/31 12:58:42;;;;;;;6.95;5.05;;;;;;;;;;5062978;28;20120;-75
2022/07/31 13:01:07;;;;;;;7.95;5.32;;;;;;;;;;5057845;28;20033;-74
2022/07/31 13:03:33;;;;;;;5.75;4.75;;;;;;;;;;5059773;28;20445;-75
2022/07/31 13:05:58;;;;;;;7.78;4.97;;;;;;;;;;5053290;28;20347;-75
2022/07/31 13:08:24;;;;;;;5.70;4.93;;;;;;;;;;5054533;28;20081;-75
2022/07/31 13:10:49;;;;;;;6.05;4.75;;;;;;;;;;5056543;28;20047;-75
2022/07/31 13:13:14;;;;;;;6.55;5.03;;;;;;;;;;5052566;28;20720;-75
2022/07/31 13:15:40;;;;;;;7.40;5.30;;;;;;;;;;5053933;28;20032;-74
2022/07/31 13:18:05;;;;;;;7.35;4.88;;;;;;;;;;5057916;28;20387;-75
2022/07/31 13:20:31;;;;;;;6.25;4.43;;;;;;;;;;5054524;28;20025;-73
2022/07/31 13:22:58;;;;;;;8.18;5.03;;;;;;;;;;5057281;28;20115;-74
2022/07/31 13:25:25;;;;;;;9.45;4.90;;;;;;;;;;5056362;28;20032;-75
2022/07/31 13:27:51;;;;;;;7.30;4.72;;;;;;;;;;5055931;28;20503;-75
2022/07/31 13:30:16;;;;;;;6.38;5.00;;;;;;;;;;5051622;28;20028;-74
2022/07/31 13:32:42;;;;;;;5.82;4.57;;;;;;;;;;5054723;28;20098;-75
2022/07/31 13:35:07;;;;;;;6.80;4.30;;;;;;;;;;5055526;28;20031;-74
2022/07/31 13:37:33;;;;;;;4.88;3.17;;;;;;;;;;5053150;28;20639;-75
2022/07/31 13:39:58;;;;;;;6.38;3.78;;;;;;;;;;5056679;28;20567;-74
2022/07/31 13:42:23;;;;;;;5.65;2.90;;;;;;;;;;5055451;28;20020;-74
2022/07/31 13:44:49;;;;;;;4.50;3.20;;;;;;;;;;5055346;28;20022;-76
2022/07/31 13:47:14;;;;;;;5.13;3.20;;;;;;;;;;5057354;28;20031;-75
2022/07/31 13:49:40;;;;;;;4.55;3.47;;;;;;;;;;5054293;28;20036;-75
2022/07/31 13:52:05;;;;;;;5.38;3.10;;;;;;;;;;5053483;28;20068;-74
2022/07/31 13:54:30;;;;;;;4.45;2.70;;;;;;;;;;5057421;28;20158;-74
2022/07/31 13:56:56;;;;;;;4.45;2.83;;;;;;;;;;5056367;28;20488;-75
2022/07/31 13:59:21;;;;;;;3.33;2.42;;;;;;;;;;5053500;28;20474;-75
2022/07/31 14:01:50;;;;;;;4.00;2.67;;;;;;;;;;5054987;28;20438;-75
2022/07/31 14:04:17;;;;;;;6.32;2.60;;;;;;;;;;5057057;28;20528;-75
2022/07/31 14:06:43;;;;;;;3.90;2.47;;;;;;;;;;5057213;28;20392;-75
2022/07/31 14:09:08;;;;;;;3.58;2.33;;;;;;;;;;5055562;28;20032;-74
2022/07/31 14:11:33;;;;;;;4.07;2.40;;;;;;;;;;5051119;28;20500;-74
2022/07/31 14:13:59;;;;;;;4.00;2.67;;;;;;;;;;5051552;28;20127;-74
2022/07/31 14:16:24;;;;;;;5.57;2.70;;;;;;;;;;5056012;28;20056;-75
2022/07/31 14:18:50;;;;;;;5.03;2.50;;;;;;;;;;5056839;28;20500;-75
2022/07/31 14:21:15;;;;;;;5.05;3.08;;;;;;;;;;5051112;28;20107;-74
2022/07/31 14:23:40;;;;;;;7.45;3.67;;;;;;;;;;5055277;28;20032;-74
2022/07/31 14:26:06;;;;;;;6.85;4.18;;;;;;;;;;5056902;28;20032;-75
2022/07/31 14:28:31;;;;;;;6.55;3.90;;;;;;;;;;5050943;28;20036;-76
2022/07/31 14:30:57;;;;;;;6.65;3.90;;;;;;;;;;5056248;28;20481;-75
2022/07/31 14:33:22;;;;;;;6.95;4.18;;;;;;;;;;5054295;28;20548;-76
2022/07/31 14:35:47;;;;;;;5.93;4.30;;;;;;;;;;5056831;28;20032;-75
2022/07/31 14:38:13;;;;;;;8.07;4.90;;;;;;;;;;5053132;28;20028;-75
2022/07/31 14:40:38;;;;;;;7.65;4.72;;;;;;;;;;5058325;28;20071;-75
2022/07/31 14:43:03;;;;;;;7.05;4.35;;;;;;;;;;5054173;28;20028;-75